Time;durP1;ratioP1;P1;durP2;ratioP2;P2;SDS_P1;SDS_P2;PMS_P1;PMS_P2;Temp;Humidity;BMP_temperature;BMP_pressure;BME280_temperature;BME280_humidity;BME280_pressure;Samples;Min_cycle;Max_cycle;Signal;HPM_P1;HPM_P2
2021/05/25 00:02:07;;;;;;;16.43;9.23;;;16.40;99.90;;;;;;5031655;28;20236;-72
2021/05/25 00:04:35;;;;;;;20.50;10.90;;;16.50;99.90;;;;;;5031322;28;20189;-71
2021/05/25 00:07:02;;;;;;;22.23;10.63;;;16.60;99.90;;;;;;5031926;28;20246;-70
2021/05/25 00:09:29;;;;;;;16.20;7.43;;;16.80;99.90;;;;;;5031931;28;20248;-70
2021/05/25 00:11:57;;;;;;;12.20;7.93;;;16.90;99.90;;;;;;5031816;28;20622;-70
2021/05/25 00:14:25;;;;;;;18.80;8.97;;;17.00;99.90;;;;;;5031507;28;20188;-72
2021/05/25 00:16:53;;;;;;;17.67;9.57;;;17.00;99.90;;;;;;5031221;28;20639;-71
2021/05/25 00:19:21;;;;;;;21.40;9.67;;;17.10;99.90;;;;;;5031916;28;20265;-71
2021/05/25 00:21:50;;;;;;;22.83;9.73;;;17.30;99.90;;;;;;5035365;28;20179;-69
2021/05/25 00:24:17;;;;;;;24.33;9.77;;;17.30;99.90;;;;;;5035347;28;20261;-72
2021/05/25 00:26:45;;;;;;;25.63;9.40;;;17.40;99.90;;;;;;5033340;28;20207;-71
2021/05/25 00:29:12;;;;;;;26.93;9.13;;;17.50;99.90;;;;;;5035166;28;20183;-71
2021/05/25 00:31:41;;;;;;;19.90;8.40;;;17.70;99.90;;;;;;5033818;28;20240;-70
2021/05/25 00:34:08;;;;;;;19.50;8.27;;;17.70;99.90;;;;;;5035102;28;20190;-71
2021/05/25 00:36:36;;;;;;;14.13;6.53;;;17.90;99.90;;;;;;5031744;28;20230;-70
2021/05/25 00:39:06;;;;;;;12.10;6.10;;;18.00;99.90;;;;;;5034936;28;20238;-70
2021/05/25 00:41:36;;;;;;;15.60;7.13;;;18.20;99.90;;;;;;5035041;28;20804;-71
2021/05/25 00:44:08;;;;;;;86.00;15.33;;;18.30;99.90;;;;;;5034670;28;20199;-70
2021/05/25 00:46:40;;;;;;;17.23;7.07;;;18.40;99.90;;;;;;5014848;28;20220;-71
2021/05/25 00:49:09;;;;;;;17.67;8.00;;;18.50;99.90;;;;;;5031415;28;20590;-68
2021/05/25 00:51:38;;;;;;;17.73;7.57;;;18.60;99.90;;;;;;5035246;28;20275;-71
2021/05/25 00:54:06;;;;;;;18.93;7.83;;;18.70;99.90;;;;;;5034732;28;20529;-69
2021/05/25 00:56:33;;;;;;;15.30;6.53;;;18.70;99.90;;;;;;5018024;28;20196;-69
2021/05/25 00:59:01;;;;;;;12.70;6.60;;;18.70;99.90;;;;;;5023213;28;20208;-70
2021/05/25 01:01:28;;;;;;;17.30;7.10;;;18.80;99.90;;;;;;5034843;28;20177;-70
2021/05/25 01:03:57;;;;;;;12.53;6.53;;;19.00;99.90;;;;;;5033512;28;20188;-69
2021/05/25 01:06:24;;;;;;;17.87;6.33;;;19.30;99.90;;;;;;5033419;28;20212;-70
2021/05/25 01:08:52;;;;;;;20.37;6.90;;;19.40;99.90;;;;;;5033295;28;20175;-71
2021/05/25 01:11:21;;;;;;;17.93;6.27;;;19.40;99.90;;;;;;5034611;28;20636;-71
2021/05/25 01:13:54;;;;;;;14.53;6.00;;;19.50;99.90;;;;;;5034382;28;20177;-70
2021/05/25 01:16:23;;;;;;;14.93;5.73;;;19.80;99.90;;;;;;5034409;28;20636;-71
2021/05/25 01:18:51;;;;;;;16.13;6.30;;;20.00;99.90;;;;;;5031531;28;20716;-71
2021/05/25 01:21:19;;;;;;;18.83;6.07;;;20.10;99.90;;;;;;5031713;28;20268;-71
2021/05/25 01:23:47;;;;;;;12.93;4.70;;;20.10;99.90;;;;;;5033270;28;20187;-70
2021/05/25 01:26:16;;;;;;;10.93;4.13;;;20.40;99.90;;;;;;5032995;28;20330;-71
2021/05/25 01:28:46;;;;;;;12.50;3.00;;;20.60;99.90;;;;;;5032080;28;20184;-73
2021/05/25 01:31:17;;;;;;;3.87;1.50;;;20.80;99.90;;;;;;5027130;28;20191;-73
2021/05/25 01:33:45;;;;;;;6.57;1.33;;;20.60;99.90;;;;;;5029459;28;20582;-71
2021/05/25 01:36:16;;;;;;;2.60;0.93;;;20.80;99.90;;;;;;5027304;28;20187;-72
2021/05/25 01:38:43;;;;;;;4.17;1.53;;;20.80;99.90;;;;;;5032153;28;20228;-68
2021/05/25 01:41:11;;;;;;;2.17;0.90;;;21.00;99.90;;;;;;5033254;28;20587;-70
2021/05/25 01:43:39;;;;;;;4.83;1.30;;;21.10;99.90;;;;;;5032855;28;20181;-69
2021/05/25 01:46:07;;;;;;;5.87;1.30;;;21.30;99.50;;;;;;5032038;28;20670;-71
2021/05/25 01:48:34;;;;;;;2.93;0.80;;;21.30;99.70;;;;;;5029967;28;20243;-71
2021/05/25 01:51:02;;;;;;;3.90;0.80;;;21.10;99.70;;;;;;5032198;28;20177;-72
2021/05/25 01:53:30;;;;;;;2.97;0.80;;;21.10;99.60;;;;;;5032317;28;20180;-70
2021/05/25 01:55:59;;;;;;;2.10;1.03;;;21.20;99.30;;;;;;5032865;28;20189;-70
2021/05/25 01:58:33;;;;;;;4.47;1.17;;;21.30;99.00;;;;;;5032300;28;20180;-71
2021/05/25 02:01:12;;;;;;;2.97;1.00;;;21.40;99.70;;;;;;5032235;28;20539;-70
2021/05/25 02:03:41;;;;;;;3.23;0.80;;;21.50;99.10;;;;;;5020087;28;20185;-69
2021/05/25 02:06:10;;;;;;;3.03;0.90;;;21.60;98.90;;;;;;5027319;28;20212;-69
2021/05/25 02:08:39;;;;;;;2.00;0.70;;;21.60;98.40;;;;;;5031903;28;20234;-72
2021/05/25 02:11:08;;;;;;;6.97;1.00;;;21.70;98.80;;;;;;5033387;28;20184;-69
2021/05/25 02:13:38;;;;;;;1.23;0.70;;;21.80;99.00;;;;;;5033238;28;20202;-72
2021/05/25 02:16:08;;;;;;;3.23;1.10;;;22.00;97.50;;;;;;5032496;28;20651;-70
2021/05/25 02:18:43;;;;;;;1.80;0.83;;;21.80;97.40;;;;;;5032235;28;20674;-70
2021/05/25 02:21:12;;;;;;;4.43;0.77;;;21.80;97.10;;;;;;5032532;28;20198;-72
2021/05/25 02:23:40;;;;;;;5.70;0.80;;;21.80;97.50;;;;;;5013565;28;20277;-71
2021/05/25 02:26:08;;;;;;;3.53;0.80;;;22.00;97.70;;;;;;5032784;28;20690;-70
2021/05/25 02:28:36;;;;;;;6.10;1.00;;;22.10;96.90;;;;;;5032767;28;20610;-71
2021/05/25 02:31:04;;;;;;;2.77;0.73;;;22.10;97.10;;;;;;5033187;28;20188;-71
2021/05/25 02:33:32;;;;;;;4.53;0.93;;;22.20;97.00;;;;;;5033410;28;20176;-69
2021/05/25 02:36:00;;;;;;;1.57;0.60;;;22.20;97.40;;;;;;5020272;28;20227;-70
2021/05/25 02:38:30;;;;;;;4.53;0.90;;;22.00;96.90;;;;;;5013514;28;20221;-71
2021/05/25 02:40:59;;;;;;;2.97;0.73;;;22.10;97.20;;;;;;5033111;28;20665;-71
2021/05/25 02:43:28;;;;;;;3.17;1.10;;;22.20;97.60;;;;;;5029689;28;20177;-72
2021/05/25 02:45:56;;;;;;;4.43;0.80;;;22.00;97.70;;;;;;5030405;28;20303;-70
2021/05/25 02:48:24;;;;;;;4.17;1.07;;;22.10;98.00;;;;;;5032465;28;20264;-70
2021/05/25 02:50:52;;;;;;;7.73;1.20;;;22.20;97.90;;;;;;5032723;28;20207;-72
2021/05/25 02:53:20;;;;;;;2.30;0.73;;;22.20;97.80;;;;;;5032574;28;20177;-71
2021/05/25 02:55:47;;;;;;;3.10;0.90;;;22.30;98.30;;;;;;5032721;28;20645;-72
2021/05/25 02:58:15;;;;;;;6.53;0.80;;;22.60;98.00;;;;;;5032374;28;20172;-72
2021/05/25 03:00:45;;;;;;;6.03;0.80;;;22.60;98.30;;;;;;5032395;28;20180;-70
2021/05/25 03:03:13;;;;;;;2.37;0.80;;;22.70;98.10;;;;;;5032421;28;20180;-69
2021/05/25 03:05:43;;;;;;;6.10;1.23;;;22.80;97.70;;;;;;5032528;28;20200;-72
2021/05/25 03:08:12;;;;;;;3.67;1.33;;;22.70;97.40;;;;;;5031121;28;20230;-71
2021/05/25 03:10:43;;;;;;;5.30;1.50;;;22.60;98.00;;;;;;5030791;28;20407;-70
2021/05/25 03:13:11;;;;;;;6.27;1.10;;;22.60;98.00;;;;;;5031328;28;20195;-70
2021/05/25 03:15:46;;;;;;;4.97;1.00;;;22.50;98.20;;;;;;5032394;28;20235;-69
2021/05/25 03:18:14;;;;;;;5.70;1.03;;;22.70;97.80;;;;;;5032352;28;20259;-71
2021/05/25 03:20:45;;;;;;;10.03;1.03;;;22.90;97.70;;;;;;5031764;28;20187;-72
2021/05/25 03:23:13;;;;;;;7.13;1.27;;;23.00;97.50;;;;;;5027106;28;20662;-72
2021/05/25 03:25:41;;;;;;;3.67;0.97;;;23.10;97.10;;;;;;5032038;28;20204;-70
2021/05/25 03:28:09;;;;;;;5.60;1.20;;;22.90;98.10;;;;;;5032050;28;20188;-71
2021/05/25 03:30:38;;;;;;;4.37;0.90;;;23.40;97.80;;;;;;5031909;28;20602;-70
2021/05/25 03:33:06;;;;;;;5.60;0.97;;;23.70;97.70;;;;;;5032422;28;20174;-70
2021/05/25 03:35:33;;;;;;;7.17;1.40;;;24.00;97.10;;;;;;5032014;28;20655;-68
2021/05/25 03:38:01;;;;;;;7.83;1.47;;;23.70;97.60;;;;;;5032199;28;20230;-70
2021/05/25 03:40:28;;;;;;;8.40;1.73;;;24.00;97.80;;;;;;5032218;28;20178;-72
2021/05/25 03:42:56;;;;;;;6.33;1.67;;;24.20;97.50;;;;;;5030530;28;20223;-71
2021/05/25 03:45:24;;;;;;;5.67;1.13;;;24.30;96.90;;;;;;5028550;28;20540;-70
2021/05/25 03:47:52;;;;;;;6.13;1.60;;;24.00;96.50;;;;;;5031971;28;20193;-70
2021/05/25 03:50:21;;;;;;;8.90;1.87;;;24.10;96.90;;;;;;5031965;28;20173;-71
2021/05/25 03:52:54;;;;;;;7.00;1.70;;;24.30;97.20;;;;;;5026809;28;20184;-74
2021/05/25 04:00:44;;;;;;;9.10;2.17;;;24.70;96.90;;;;;;5035107;28;20230;-73
2021/05/25 04:03:11;;;;;;;6.10;2.03;;;24.40;97.00;;;;;;5033792;28;20542;-71
2021/05/25 04:05:39;;;;;;;12.27;2.20;;;24.20;97.20;;;;;;5033445;28;20208;-74
2021/05/25 04:08:09;;;;;;;5.73;1.90;;;24.10;97.80;;;;;;5034881;28;20185;-74
2021/05/25 04:10:37;;;;;;;7.57;1.93;;;24.30;97.60;;;;;;5034967;28;20199;-72
2021/05/25 04:13:04;;;;;;;5.27;1.90;;;24.70;97.20;;;;;;5034078;28;20247;-73
2021/05/25 04:15:33;;;;;;;10.80;1.83;;;24.50;97.00;;;;;;5034754;28;20189;-72
2021/05/25 04:18:02;;;;;;;7.00;1.70;;;24.20;97.50;;;;;;5034548;28;20211;-73
2021/05/25 04:20:31;;;;;;;13.17;2.47;;;24.00;97.50;;;;;;5031976;28;20184;-70
2021/05/25 04:22:59;;;;;;;8.33;1.83;;;23.70;98.00;;;;;;5034456;28;20196;-71
2021/05/25 04:25:27;;;;;;;12.47;2.23;;;23.90;97.50;;;;;;5031727;28;20192;-72
2021/05/25 04:27:56;;;;;;;5.27;1.53;;;23.70;97.90;;;;;;5033614;28;20196;-74
2021/05/25 04:30:24;;;;;;;9.23;1.90;;;24.00;97.80;;;;;;5033611;28;20707;-72
2021/05/25 04:32:52;;;;;;;8.67;2.07;;;23.90;97.90;;;;;;5032542;28;20185;-69
2021/05/25 04:35:20;;;;;;;6.57;1.47;;;24.10;97.80;;;;;;5034493;28;20592;-73
2021/05/25 04:37:48;;;;;;;9.37;1.73;;;24.40;97.10;;;;;;5030657;28;20224;-72
2021/05/25 04:40:16;;;;;;;9.17;1.60;;;24.10;96.90;;;;;;5033398;28;20228;-71
2021/05/25 04:42:44;;;;;;;7.40;1.70;;;24.30;97.00;;;;;;5030950;28;20185;-71
2021/05/25 04:45:12;;;;;;;4.23;1.50;;;24.10;97.20;;;;;;5033334;28;20191;-71
2021/05/25 04:47:40;;;;;;;6.33;1.30;;;24.00;96.90;;;;;;5031388;28;20682;-71
2021/05/25 04:50:10;;;;;;;8.33;1.80;;;24.00;97.00;;;;;;5032943;28;20212;-69
2021/05/25 04:52:37;;;;;;;8.27;1.87;;;24.10;97.50;;;;;;5032106;28;20681;-72
2021/05/25 04:55:08;;;;;;;10.73;1.90;;;24.50;97.50;;;;;;5032850;28;20263;-72
2021/05/25 04:57:35;;;;;;;6.53;2.20;;;24.70;96.90;;;;;;5026586;28;20176;-72
2021/05/25 05:00:06;;;;;;;7.00;1.50;;;24.70;96.50;;;;;;5032992;28;20259;-72
2021/05/25 05:02:34;;;;;;;6.27;1.83;;;24.10;96.90;;;;;;5029895;28;20272;-73
2021/05/25 05:05:01;;;;;;;6.03;2.00;;;24.10;97.10;;;;;;5032143;28;20181;-71
2021/05/25 05:07:28;;;;;;;13.43;2.90;;;24.10;97.20;;;;;;5033147;28;20351;-73
2021/05/25 05:09:56;;;;;;;8.60;1.70;;;23.70;96.90;;;;;;5032856;28;20666;-72
2021/05/25 05:12:26;;;;;;;4.87;1.47;;;23.90;97.20;;;;;;5033022;28;20237;-70
2021/05/25 05:14:55;;;;;;;11.53;1.60;;;23.60;97.70;;;;;;5034115;28;20184;-70
2021/05/25 05:17:28;;;;;;;8.40;1.80;;;23.50;97.70;;;;;;5033527;28;20177;-70
2021/05/25 05:19:56;;;;;;;13.97;2.47;;;23.60;97.80;;;;;;5040517;28;20187;-70
2021/05/25 05:22:24;;;;;;;9.43;2.17;;;24.00;97.30;;;;;;5044934;28;20365;-70
2021/05/25 05:24:52;;;;;;;5.77;1.87;;;23.90;97.20;;;;;;5031850;28;20202;-70
2021/05/25 05:27:19;;;;;;;6.93;2.07;;;23.80;97.50;;;;;;5032877;28;20209;-73
2021/05/25 05:29:47;;;;;;;12.27;1.40;;;23.50;97.80;;;;;;5035071;28;20258;-69
2021/05/25 05:32:14;;;;;;;7.00;1.37;;;23.40;97.80;;;;;;5033615;28;20212;-71
2021/05/25 05:34:41;;;;;;;5.33;1.50;;;23.00;98.30;;;;;;5034066;28;20193;-70
2021/05/25 05:37:09;;;;;;;5.37;1.27;;;23.10;98.50;;;;;;5033884;28;20196;-71
2021/05/25 05:39:36;;;;;;;10.10;1.50;;;22.80;98.70;;;;;;5034825;28;20188;-71
2021/05/25 05:42:04;;;;;;;8.30;1.63;;;22.80;98.80;;;;;;5034542;28;20189;-74
2021/05/25 05:44:31;;;;;;;10.80;1.90;;;23.10;98.60;;;;;;5033939;28;20215;-71
2021/05/25 05:46:59;;;;;;;4.97;1.43;;;22.60;98.70;;;;;;5030503;28;20232;-71
2021/05/25 05:49:28;;;;;;;4.33;1.07;;;22.30;99.20;;;;;;5030776;28;20173;-69
2021/05/25 05:51:55;;;;;;;4.73;1.17;;;21.80;99.90;;;;;;5032290;28;20184;-70
2021/05/25 05:54:24;;;;;;;3.63;1.10;;;22.00;99.90;;;;;;5034181;28;20189;-73
2021/05/25 05:56:52;;;;;;;7.30;1.50;;;21.50;99.90;;;;;;5034082;28;20740;-71
2021/05/25 05:59:19;;;;;;;11.33;1.80;;;21.40;99.90;;;;;;5032382;28;20203;-73
2021/05/25 06:01:47;;;;;;;4.67;1.17;;;21.10;99.90;;;;;;5031922;28;20180;-71
2021/05/25 06:04:14;;;;;;;5.77;1.10;;;21.00;99.90;;;;;;5033453;28;20636;-71
2021/05/25 06:06:42;;;;;;;5.07;1.43;;;20.80;99.90;;;;;;5033012;28;20255;-71
2021/05/25 06:09:09;;;;;;;8.43;2.00;;;20.80;99.90;;;;;;5033843;28;20177;-73
2021/05/25 06:11:37;;;;;;;3.60;1.20;;;20.80;99.90;;;;;;5033342;28;20220;-72
2021/05/25 06:14:04;;;;;;;5.00;1.40;;;20.70;99.90;;;;;;5032995;28;20548;-70
2021/05/25 06:16:35;;;;;;;10.23;1.57;;;20.50;99.90;;;;;;5029598;28;20226;-70
2021/05/25 06:19:03;;;;;;;5.87;1.30;;;20.30;99.90;;;;;;5026182;28;20238;-70
2021/05/25 06:21:30;;;;;;;5.90;1.50;;;20.10;99.90;;;;;;5031415;28;20216;-69
2021/05/25 06:23:58;;;;;;;4.67;1.37;;;19.90;99.90;;;;;;5033070;28;20169;-73
2021/05/25 06:26:25;;;;;;;5.70;1.50;;;19.70;99.90;;;;;;5032518;28;20204;-71
2021/05/25 06:28:52;;;;;;;8.07;2.00;;;19.70;99.90;;;;;;5037440;28;20183;-73
2021/05/25 06:31:20;;;;;;;6.33;1.90;;;19.60;99.90;;;;;;5033393;28;20547;-72
2021/05/25 06:33:47;;;;;;;10.20;1.80;;;19.50;99.90;;;;;;5030691;28;20188;-72
2021/05/25 06:36:15;;;;;;;8.03;1.80;;;19.50;99.90;;;;;;5032436;28;20227;-73
2021/05/25 06:38:42;;;;;;;5.83;2.00;;;19.40;99.90;;;;;;5032330;28;20220;-72
2021/05/25 06:41:10;;;;;;;5.73;1.60;;;19.40;99.90;;;;;;5032955;28;20176;-71
2021/05/25 06:43:37;;;;;;;10.13;1.90;;;19.30;99.90;;;;;;5033068;28;20538;-71
2021/05/25 06:46:07;;;;;;;8.90;1.87;;;19.30;99.90;;;;;;5032649;28;20204;-71
2021/05/25 06:48:35;;;;;;;11.17;1.43;;;19.20;99.90;;;;;;5028142;28;20201;-71
2021/05/25 06:51:06;;;;;;;6.83;1.97;;;19.20;99.90;;;;;;5032756;28;20278;-71
2021/05/25 06:53:38;;;;;;;7.60;1.93;;;19.20;99.90;;;;;;5032076;28;20192;-72
2021/05/25 06:56:07;;;;;;;10.73;1.90;;;19.10;99.90;;;;;;5032680;28;20231;-72
2021/05/25 06:58:34;;;;;;;12.83;2.20;;;19.00;99.90;;;;;;5029103;28;20642;-70
2021/05/25 07:01:02;;;;;;;9.10;2.40;;;18.90;99.90;;;;;;5032265;28;20192;-70
2021/05/25 07:03:29;;;;;;;13.73;2.33;;;18.80;99.90;;;;;;5028334;28;20192;-71
2021/05/25 07:05:57;;;;;;;9.53;1.93;;;18.80;99.90;;;;;;5025427;28;20208;-71
2021/05/25 07:08:24;;;;;;;14.87;1.70;;;18.80;99.90;;;;;;5031887;28;20176;-69
2021/05/25 07:10:51;;;;;;;8.77;1.70;;;18.70;99.90;;;;;;5029574;28;20652;-70
2021/05/25 07:13:19;;;;;;;8.60;2.67;;;18.60;99.90;;;;;;5030403;28;20177;-70
2021/05/25 07:15:49;;;;;;;8.87;2.63;;;18.60;99.90;;;;;;5030933;28;20234;-73
2021/05/25 07:18:18;;;;;;;12.37;2.40;;;18.60;99.90;;;;;;5025474;28;20188;-73
2021/05/25 07:20:49;;;;;;;15.13;2.23;;;18.60;99.90;;;;;;5035878;28;20177;-69
2021/05/25 07:23:17;;;;;;;6.57;1.80;;;18.50;99.90;;;;;;5031438;28;20183;-72
2021/05/25 07:25:44;;;;;;;10.23;2.17;;;18.50;99.90;;;;;;5031000;28;20674;-70
2021/05/25 07:28:11;;;;;;;9.57;2.43;;;18.50;99.90;;;;;;5032412;28;20235;-70
2021/05/25 07:30:40;;;;;;;9.17;1.97;;;18.40;99.90;;;;;;5028487;28;20574;-69
2021/05/25 07:33:11;;;;;;;9.93;2.80;;;18.40;99.90;;;;;;5053245;28;20187;-73
2021/05/25 07:35:38;;;;;;;14.67;2.87;;;18.40;99.90;;;;;;5016831;28;20291;-72
2021/05/25 07:38:06;;;;;;;12.80;2.60;;;18.40;99.90;;;;;;5036888;28;20295;-72
2021/05/25 07:40:34;;;;;;;8.87;2.43;;;18.30;99.90;;;;;;5035477;28;20223;-70
2021/05/25 07:43:01;;;;;;;8.00;2.60;;;18.30;99.90;;;;;;5035734;28;20191;-73
2021/05/25 07:45:29;;;;;;;12.20;2.70;;;18.30;99.90;;;;;;5039624;28;20545;-71
2021/05/25 07:47:56;;;;;;;11.20;2.70;;;18.30;99.90;;;;;;5036269;28;20180;-71
2021/05/25 07:50:24;;;;;;;9.00;2.90;;;18.30;99.90;;;;;;5033905;28;20665;-69
2021/05/25 07:52:57;;;;;;;13.97;2.73;;;18.20;99.90;;;;;;5035428;28;20195;-70
2021/05/25 07:55:27;;;;;;;9.60;2.60;;;18.30;99.90;;;;;;5036084;28;20544;-71
2021/05/25 07:57:55;;;;;;;6.77;2.00;;;18.30;99.90;;;;;;5034494;28;20201;-71
2021/05/25 08:00:26;;;;;;;6.20;1.73;;;18.20;99.90;;;;;;5035492;28;20191;-68
2021/05/25 08:02:54;;;;;;;7.17;2.40;;;18.20;99.90;;;;;;5035448;28;20188;-70
2021/05/25 08:05:24;;;;;;;8.27;2.00;;;18.20;99.90;;;;;;5035317;28;20184;-69
2021/05/25 08:07:52;;;;;;;6.57;2.20;;;18.10;99.90;;;;;;5035095;28;20319;-71
2021/05/25 08:10:20;;;;;;;7.43;1.80;;;18.10;99.90;;;;;;5035306;28;20191;-71
2021/05/25 08:12:47;;;;;;;8.27;1.90;;;18.10;99.90;;;;;;5035120;28;20622;-71
2021/05/25 08:15:18;;;;;;;6.70;2.00;;;18.10;99.90;;;;;;5033468;28;20207;-72
2021/05/25 08:17:57;;;;;;;7.53;2.40;;;18.10;99.90;;;;;;5034606;28;20177;-71
2021/05/25 08:20:24;;;;;;;9.07;2.27;;;18.10;99.90;;;;;;5033055;28;20194;-71
2021/05/25 08:22:55;;;;;;;7.93;2.20;;;18.10;99.90;;;;;;5034526;28;20190;-71
2021/05/25 08:25:27;;;;;;;7.17;2.30;;;18.10;99.90;;;;;;5035389;28;20239;-71
2021/05/25 08:27:56;;;;;;;13.23;2.73;;;18.10;99.90;;;;;;5035043;28;20192;-71
2021/05/25 08:30:25;;;;;;;9.40;2.43;;;18.10;99.90;;;;;;5034920;28;20216;-70
2021/05/25 08:32:55;;;;;;;9.67;2.37;;;18.10;99.90;;;;;;5034037;28;20202;-69
2021/05/25 08:35:24;;;;;;;9.57;2.07;;;18.10;99.90;;;;;;5033098;28;20580;-71
2021/05/25 08:37:59;;;;;;;14.77;2.30;;;18.00;99.90;;;;;;5034184;28;20243;-71
2021/05/25 08:40:28;;;;;;;7.73;2.27;;;18.00;99.90;;;;;;5034580;28;20709;-72
2021/05/25 08:42:55;;;;;;;8.33;2.70;;;17.90;99.90;;;;;;5034845;28;20270;-70
2021/05/25 08:45:23;;;;;;;5.80;2.10;;;17.90;99.90;;;;;;5039606;28;20180;-72
2021/05/25 08:47:53;;;;;;;6.27;2.53;;;17.90;99.90;;;;;;5037389;28;20288;-70
2021/05/25 08:50:28;;;;;;;7.97;2.17;;;17.80;99.90;;;;;;5033512;28;20531;-74
2021/05/25 08:53:04;;;;;;;4.63;2.03;;;17.80;99.90;;;;;;5035344;28;20206;-74
2021/05/25 08:55:35;;;;;;;7.50;2.17;;;17.80;99.90;;;;;;5033501;28;20271;-71
2021/05/25 08:58:04;;;;;;;9.60;2.30;;;17.80;99.90;;;;;;5033152;28;20180;-71
2021/05/25 09:00:31;;;;;;;5.67;1.83;;;17.80;99.90;;;;;;5034558;28;20185;-70
2021/05/25 09:02:59;;;;;;;6.20;1.73;;;17.80;99.90;;;;;;5034941;28;20262;-72
2021/05/25 09:05:27;;;;;;;6.40;2.00;;;17.80;99.90;;;;;;5031537;28;20190;-71
2021/05/25 09:07:58;;;;;;;5.77;1.80;;;17.80;99.90;;;;;;5034597;28;20198;-71
2021/05/25 09:10:33;;;;;;;8.37;2.50;;;17.80;99.90;;;;;;5025456;28;20172;-70
2021/05/25 09:13:01;;;;;;;10.23;2.13;;;17.80;99.90;;;;;;5033110;28;20186;-71
2021/05/25 09:15:43;;;;;;;8.93;2.00;;;17.70;99.90;;;;;;5031886;28;20211;-73
2021/05/25 09:18:13;;;;;;;4.90;1.60;;;17.70;99.90;;;;;;5034713;28;20187;-72
2021/05/25 09:20:47;;;;;;;6.53;2.30;;;17.70;99.90;;;;;;5029549;28;20580;-74
2021/05/25 09:23:22;;;;;;;8.10;2.10;;;17.60;99.90;;;;;;5027327;28;20196;-75
2021/05/25 09:26:18;;;;;;;8.03;1.90;;;17.60;99.90;;;;;;5033175;28;20218;-72
2021/05/25 09:29:04;;;;;;;7.73;2.23;;;17.50;99.90;;;;;;5029546;28;20647;-71
2021/05/25 09:31:46;;;;;;;9.87;2.03;;;17.50;99.90;;;;;;5033674;28;20262;-72
2021/05/25 09:34:16;;;;;;;6.07;1.70;;;17.50;99.90;;;;;;5033390;28;20190;-71
2021/05/25 09:37:03;;;;;;;4.60;1.73;;;17.40;99.90;;;;;;5034131;28;20583;-71
2021/05/25 09:39:52;;;;;;;4.73;1.70;;;17.40;99.90;;;;;;5033885;28;20259;-72
2021/05/25 09:42:19;;;;;;;5.73;1.83;;;17.40;99.90;;;;;;5037474;28;20183;-71
2021/05/25 09:45:05;;;;;;;5.83;1.70;;;17.40;99.90;;;;;;5034232;28;20197;-69
2021/05/25 09:47:40;;;;;;;7.87;1.60;;;17.40;99.90;;;;;;5033771;28;20223;-70
2021/05/25 09:50:12;;;;;;;6.47;1.50;;;17.40;99.90;;;;;;5035512;28;20272;-70
2021/05/25 09:53:05;;;;;;;6.57;2.43;;;17.40;99.90;;;;;;5032174;28;20192;-70
2021/05/25 09:55:54;;;;;;;3.50;1.67;;;17.40;99.90;;;;;;5033309;28;20183;-70
2021/05/25 09:58:25;;;;;;;4.23;1.50;;;17.30;99.90;;;;;;5031901;28;20188;-71
2021/05/25 10:00:53;;;;;;;2.80;1.40;;;17.40;99.90;;;;;;5031747;28;20183;-69
2021/05/25 10:03:23;;;;;;;3.40;1.37;;;17.30;99.90;;;;;;5025965;28;20211;-70
2021/05/25 10:06:01;;;;;;;3.90;1.60;;;17.30;99.90;;;;;;5033152;28;20663;-69
2021/05/25 10:08:30;;;;;;;2.77;1.57;;;17.30;99.90;;;;;;5017588;28;20203;-70
2021/05/25 10:10:59;;;;;;;4.47;1.40;;;17.30;99.90;;;;;;5033791;28;20180;-71
2021/05/25 10:13:31;;;;;;;5.77;1.70;;;17.20;99.90;;;;;;5032945;28;20202;-69
2021/05/25 10:15:59;;;;;;;2.53;1.20;;;17.20;99.90;;;;;;5033677;28;20177;-71
2021/05/25 10:21:00;;;;;;;2.50;1.10;;;17.20;99.90;;;;;;5032848;28;20215;-71
2021/05/25 10:23:32;;;;;;;3.70;1.60;;;17.20;99.90;;;;;;5032928;28;20654;-72
2021/05/25 10:26:01;;;;;;;3.53;1.40;;;17.20;99.90;;;;;;5031298;28;20615;-71
2021/05/25 10:28:29;;;;;;;5.43;1.27;;;17.20;99.90;;;;;;5039661;28;20210;-70
2021/05/25 10:30:58;;;;;;;2.73;1.30;;;17.30;99.90;;;;;;5015311;28;20184;-69
2021/05/25 10:33:30;;;;;;;4.13;1.80;;;17.20;99.90;;;;;;5033166;28;20259;-69
2021/05/25 10:36:01;;;;;;;3.80;1.40;;;17.20;99.90;;;;;;5032350;28;20180;-69
2021/05/25 10:38:55;;;;;;;2.40;1.40;;;17.20;99.90;;;;;;5032330;28;20238;-70
2021/05/25 10:41:35;;;;;;;4.23;1.43;;;17.20;99.90;;;;;;5024326;28;20671;-70
2021/05/25 10:44:03;;;;;;;2.97;1.60;;;17.20;99.90;;;;;;5032076;28;20202;-70
2021/05/25 10:46:32;;;;;;;3.70;1.40;;;17.20;99.90;;;;;;5032780;28;20281;-69
2021/05/25 10:49:26;;;;;;;4.77;1.57;;;17.20;99.90;;;;;;5032476;28;20186;-69
2021/05/25 10:51:53;;;;;;;8.27;1.90;;;17.20;99.90;;;;;;5032644;28;20188;-70
2021/05/25 10:54:24;;;;;;;5.33;1.33;;;17.20;99.90;;;;;;5032244;28;20184;-71
2021/05/25 10:56:53;;;;;;;4.73;1.47;;;17.10;99.90;;;;;;5032894;28;20181;-74
2021/05/25 10:59:21;;;;;;;5.13;1.83;;;17.10;99.90;;;;;;5032476;28;20656;-68
2021/05/25 11:02:01;;;;;;;3.30;1.67;;;17.00;99.90;;;;;;5032534;28;20211;-71
2021/05/25 11:04:38;;;;;;;3.67;1.50;;;17.00;99.90;;;;;;5031956;28;20193;-69
2021/05/25 11:07:38;;;;;;;6.93;1.40;;;17.00;99.90;;;;;;5028320;28;20290;-68
2021/05/25 11:10:29;;;;;;;6.77;1.47;;;17.00;99.90;;;;;;5032042;28;20181;-70
2021/05/25 11:13:15;;;;;;;7.30;1.67;;;17.00;99.90;;;;;;5030206;28;20186;-69
2021/05/25 11:16:20;;;;;;;3.50;1.47;;;17.00;99.90;;;;;;5032378;28;20594;-70
2021/05/25 11:22:11;;;;;;;6.17;1.60;;;16.90;99.90;;;;;;5010154;28;20266;-70
2021/05/25 11:24:53;;;;;;;5.43;1.50;;;16.90;99.90;;;;;;5024103;28;20210;-70
2021/05/25 11:27:43;;;;;;;6.63;1.70;;;16.90;99.90;;;;;;5031036;28;20211;-72
2021/05/25 11:30:22;;;;;;;5.00;1.37;;;16.90;99.90;;;;;;5039506;28;20188;-72
2021/05/25 11:32:53;;;;;;;22.07;2.33;;;16.90;99.90;;;;;;5032510;28;20188;-71
2021/05/25 11:35:22;;;;;;;6.10;1.50;;;16.90;99.90;;;;;;5031977;28;20249;-71
2021/05/25 11:37:53;;;;;;;5.60;1.50;;;16.90;99.90;;;;;;5031087;28;20211;-70
2021/05/25 11:40:39;;;;;;;5.87;1.97;;;16.90;99.90;;;;;;5032163;28;20192;-70
2021/05/25 11:43:07;;;;;;;4.70;1.70;;;16.90;99.90;;;;;;5031876;28;20221;-70
2021/05/25 11:45:34;;;;;;;3.70;1.50;;;16.90;99.90;;;;;;5031145;28;20188;-71
2021/05/25 11:48:04;;;;;;;8.70;1.93;;;16.80;99.90;;;;;;5032347;28;20194;-70
2021/05/25 11:50:48;;;;;;;6.10;1.57;;;16.90;99.90;;;;;;5028932;28;20182;-73
2021/05/25 11:53:23;;;;;;;5.03;1.50;;;16.90;99.90;;;;;;5030120;28;20188;-72
2021/05/25 11:55:51;;;;;;;5.70;1.43;;;16.90;99.90;;;;;;5026826;28;20226;-73
2021/05/25 11:58:22;;;;;;;5.40;1.90;;;16.90;99.90;;;;;;5026880;28;20646;-70
2021/05/25 12:00:49;;;;;;;6.93;2.03;;;16.90;99.90;;;;;;5029540;28;20279;-70
2021/05/25 12:03:17;;;;;;;8.73;1.80;;;17.00;99.90;;;;;;5030835;28;20729;-73
2021/05/25 12:05:45;;;;;;;5.27;1.43;;;16.90;99.90;;;;;;5031616;28;20204;-72
2021/05/25 12:08:13;;;;;;;7.27;1.23;;;16.90;99.90;;;;;;5031331;28;20253;-70
2021/05/25 12:10:43;;;;;;;5.40;1.40;;;16.90;99.90;;;;;;5031977;28;20181;-70
2021/05/25 12:13:17;;;;;;;4.73;1.43;;;16.90;99.90;;;;;;5031686;28;20275;-70
2021/05/25 12:15:48;;;;;;;4.33;1.23;;;16.90;99.90;;;;;;5032559;28;20645;-69
2021/05/25 12:18:17;;;;;;;5.83;1.30;;;16.80;99.90;;;;;;5035700;28;20188;-70
2021/05/25 12:20:50;;;;;;;4.80;1.07;;;16.80;99.90;;;;;;5050676;28;20184;-71
2021/05/25 12:23:20;;;;;;;3.30;1.10;;;16.80;99.90;;;;;;5033330;28;20270;-69
2021/05/25 12:25:53;;;;;;;3.73;1.27;;;16.70;99.90;;;;;;5034947;28;20301;-70
2021/05/25 12:28:24;;;;;;;3.43;1.20;;;16.70;99.90;;;;;;5035218;28;20637;-71
2021/05/25 12:30:54;;;;;;;3.50;1.23;;;16.70;99.90;;;;;;5021826;28;20278;-71
2021/05/25 12:33:29;;;;;;;3.47;1.17;;;16.70;99.90;;;;;;5034953;28;20186;-71
2021/05/25 12:36:34;;;;;;;2.77;1.10;;;16.70;99.90;;;;;;5021580;28;20665;-74
2021/05/25 12:39:13;;;;;;;5.67;1.20;;;16.80;99.90;;;;;;5034722;28;20697;-70
2021/05/25 12:41:51;;;;;;;3.87;1.57;;;16.70;99.90;;;;;;5035404;28;20186;-70
2021/05/25 12:44:21;;;;;;;3.27;0.80;;;16.70;99.90;;;;;;5033607;28;20644;-70
2021/05/25 12:46:55;;;;;;;5.80;1.50;;;16.70;99.90;;;;;;5035143;28;20218;-70
2021/05/25 12:49:42;;;;;;;3.07;1.10;;;16.70;99.90;;;;;;5035021;28;20529;-69
2021/05/25 12:52:33;;;;;;;1.77;0.87;;;16.70;99.90;;;;;;5028589;28;20186;-72
2021/05/25 12:55:10;;;;;;;3.67;1.13;;;16.70;99.90;;;;;;5026993;28;20278;-69
2021/05/25 12:57:52;;;;;;;3.03;0.97;;;16.70;99.90;;;;;;5034885;28;20179;-69
2021/05/25 13:00:43;;;;;;;3.63;1.10;;;16.70;99.90;;;;;;5034497;28;20231;-70
2021/05/25 13:03:29;;;;;;;5.67;1.20;;;16.60;99.90;;;;;;5033829;28;20290;-70
2021/05/25 13:06:31;;;;;;;2.60;1.17;;;16.60;99.90;;;;;;5034468;28;20278;-70
2021/05/25 13:09:14;;;;;;;4.17;1.33;;;16.60;99.90;;;;;;5022784;28;20657;-70
2021/05/25 13:12:01;;;;;;;5.50;1.00;;;16.50;99.90;;;;;;5034830;28;20216;-70
2021/05/25 13:14:33;;;;;;;6.00;1.33;;;16.50;99.90;;;;;;5034281;28;20236;-69
2021/05/25 13:17:04;;;;;;;5.77;1.23;;;16.50;99.90;;;;;;5034682;28;20170;-70